Northern & Central Napa County

33 Stations

15 Minute Data | America/Los_Angeles
as of 9/2/26 1:40 PM PDT
Station Date Time Temp (°F) RH (%) Dew Pt (°F) Wind Spd (mph) Wind Dir (°) Wind Gust (mph) Latest Rain (In) Daily Rain (In) Daily Max Temp (°F) Daily Min Temp (°F)
Tenma (North Calistoga) 9/2/26 1330 71.0   0.5 - - - - - 0.00 0.06 72.2   0.4 56.4   2.5
Calistoga-Solari 9/2/26 1330 69.6   1.1 60   16 55.4   7.2 4.4   0.5 WSW | 249 9.7   0.4 0.00 0.09 70.0   1.9 54.4   0.9
Calistoga-North 9/2/26 1330 71.6   4.6 60   17 57.2   4.7 - - - 0.00 0.03 73.0   4.3 57.9   1.9
Twomey Calistoga 9/2/26 1330 71.3   1.6 58   14 55.6   6.3 3.2   0.9 NW | 306 8.3   5.3 0.00 0.02 71.3   5.9 49.8   2.2
Paloma 9/2/26 1330 72.8   2.7 58   17 57.4   7.1 5.7   1.3 NNE | 24 11.6   1.3 0.00 0.00 72.8   2.7 56.1   0.3
Calistoga (Ranch 78) 9/2/26 1330 69.9   2.5 58   17 54.3   7.2 3.3   1.9 W | 270 8.5   5.7 0.00 0.01 70.9   4.0 54.8   0.1
Diamond Mtn (Schramsberg) 9/2/26 1330 66.6   3.0 68   21 55.8   7.4 - - - 0.00 0.04 67.0   4.6 54.8   1.1
Diamond Mtn (McEachran) 9/2/26 1330 66.7   1.7 67   17 55.5   6.3 - - - - - 67.4   2.6 56.7   2.4
Deer Park 9/2/26 1330 67.5   4.8 63   25 54.6   9.3 5.2   2.3 WSW | 253 9.9   3.1 0.00 0.00 69.5   3.4 56.0   0.2
St. Helena-North 9/2/26 1330 70.4   3.7 56   16 53.7   6.0 2.7   0.2 SW | 226 8.1   0.2 0.00 0.01 72.1   3.5 55.8   1.5
St. Helena (NVV Office) 9/2/26 1330 71.6   1.3 - - 1.9   0.2 SSW | 203 6.2   0.2 0.00 0.02 72.1   3.4 55.8   1.4
Tiara Fria (East St. Helena) 9/2/26 1330 69.7   2.5 63   19 56.7   7.2 3.2   0.9 S | 186 6.3   2.3 0.00 0.01 70.0   4.0 53.4   2.1
Prisoner Winery 9/2/26 1330 69.3   2.8 64   23 56.8   9.1 1.9   1.0 SW | 218 7.2   5.0 0.00 0.04 72.3   1.7 53.4   0.2
Rutherford Hill Estate 9/2/26 1330 66.8   8.6 77   39 59.5   11.4 1.2   2.7 SW | 221 5.0   5.5 0.00 0.04 68.0   8.7 55.9   1.2
Rutherford-North (Mee Ln) 9/2/26 1330 69.4   3.1 67   24 58.1   9.0 3.2   1.6 SW | 222 8.3   3.3 0.00 0.04 70.3   4.4 51.7   1.4
Rutherford (STS) 9/2/26 1330 72.2   1.8 66   18 60.1   7.4 3.3   0.1 W | 275 7.1   0.3 0.00 0.02 72.2   4.9 52.2   3.6
Silver Oak OV 9/2/26 1330 69.8   3.1 66   23 57.7   9.0 1.8   2.3 WNW | 292 6.4   2.5 0.00 0.00 71.3   3.5 52.5   5.7
Oakville-NE (Ranch 88) 9/2/26 1330 69.7   3.0 62   21 56.0   8.6 1.2   1.7 WNW | 290 6.2   1.5 0.00 0.00 70.6   4.9 51.6   5.9
Crossroads Ranch 9/2/26 1330 69.7   2.2 66   16 57.9   5.8 1.4   3.2 WSW | 240 5.2   4.1 0.00 0.00 69.7   4.5 52.9   5.6
Oakville 9/2/26 1330 70.1   4.0 60   21 55.7   7.7 3.4   0.7 W | 268 7.2   2.4 0.00 0.00 71.4   3.4 52.6   6.2
To Kalon Remote (TKKE) 9/2/26 1330 72.7   1.1 - - - - - - - 73.4   3.3 53.7   4.3
To Kalon 9/2/26 1330 72.3   0.4 57   14 56.3   7.3 2.8   0.6 SW | 221 6.5   1.7 0.00 0.00 72.9   1.0 53.6   5.9
To Kalon Remote (TKN5) 9/2/26 1330 72.2   1.2 - - - - - - - 73.8   1.3 53.7   6.5
Jump Rock 9/2/26 1330 62.7   3.3 92   37 60.3   11.1 3.4   0.9 WSW | 239 7.5   2.5 0.00 0.20 63.0   5.7 43.7   10.5
State Lane Ranch 9/2/26 1330 69.7   4.4 74   28 61.2   8.9 5.0   0.3 ESE | 123 9.4   2.4 0.00 0.00 70.4   4.9 50.4   8.4
Yountville (Ranch 67) 9/2/26 1330 70.0   1.9 63   22 56.9   10.1 4.1   0.6 SSE | 162 8.6   2.1 0.00 0.00 70.0   2.7 51.2   7.1
Borreo (Soda Canyon) 9/2/26 0815 60.0   1.6 81   1 54.1   1.9 1.6   0.2 SE | 138 3.7   0.6 0.00 0.00 60.1   1.3 50.8   6.0
Wappo Hill Floor 9/2/26 1330 70.6   1.8 68   26 59.8   11.7 3.4   0.9 S | 189 7.5   1.3 0.00 0.05 71.3   2.8 52.1   7.0
Wappo Hill 9/2/26 1330 69.1   2.7 75   34 60.9   14.0 4.3   0.7 WSW | 239 10.4   0.1 0.00 0.12 70.2   2.6 54.5   4.3
Stags Leap Dist (Chimney Rock) 9/2/26 1330 69.3   4.0 76   28 61.5   8.9 2.4   1.0 SW | 224 6.3   1.3 0.00 0.02 70.1   5.4 52.4   6.9
Stags Leap Dist (Silverado Vineyards) 9/2/26 1330 68.8   3.9 74   32 60.0   12.0 3.5   2.4 SE | 135 7.6   3.1 0.00 0.04 69.5   3.8 52.1   6.3
Yountville-SE (Ranch 85) 9/2/26 1330 69.7   2.3 71   28 59.9   11.4 2.6   1.1 WNW | 294 6.9   2.6 0.00 0.01 70.3   5.0 52.9   6.2
Yountville-South (Ranch 87) 9/2/26 1330 70.5   2.3 71   28 60.7   11.8 3.2   0.1 WSW | 240 6.4   5.1 0.00 0.05 70.9   3.6 52.4   6.6
Max     72.8 92 61.5 5.7 - 11.6 0.00 0.20 73.8 57.9
Avg     69.8 67 57.7 3.1 - 7.6 0.00 - - -
Min     62.7 56 53.7 1.2 - 5.0 0.00 0.00 63.0 43.7